Time;durP1;ratioP1;P1;durP2;ratioP2;P2;SDS_P1;SDS_P2;PMS_P1;PMS_P2;Temp;Humidity;BMP_temperature;BMP_pressure;BME280_temperature;BME280_humidity;BME280_pressure;Samples;Min_cycle;Max_cycle;Signal;HPM_P1;HPM_P2
2023/05/13 00:00:15;;;;;;;7.82;5.57;;;12.50;99.90;;;;;;5014217;28;20472;-76
2023/05/13 00:02:40;;;;;;;7.97;5.90;;;12.40;99.90;;;;;;5014168;28;20453;-76
2023/05/13 00:05:06;;;;;;;7.30;5.88;;;12.40;99.90;;;;;;5012887;28;20046;-76
2023/05/13 00:07:32;;;;;;;8.38;5.65;;;12.30;99.90;;;;;;5012294;28;20053;-75
2023/05/13 00:09:58;;;;;;;6.10;5.50;;;12.30;99.90;;;;;;5012201;28;20083;-76
2023/05/13 00:12:23;;;;;;;8.30;5.75;;;12.30;99.90;;;;;;5013268;28;20044;-76
2023/05/13 00:14:49;;;;;;;6.82;6.05;;;12.20;99.90;;;;;;5013987;28;20092;-76
2023/05/13 00:17:15;;;;;;;7.32;6.20;;;12.30;99.90;;;;;;5011924;28;20046;-76
2023/05/13 00:19:41;;;;;;;7.75;5.45;;;12.20;99.90;;;;;;5012644;28;20062;-77
2023/05/13 00:22:06;;;;;;;7.22;5.88;;;12.20;99.90;;;;;;5014229;28;20057;-77
2023/05/13 00:24:32;;;;;;;7.15;6.45;;;12.20;99.90;;;;;;5015457;28;20084;-76
2023/05/13 00:26:58;;;;;;;6.35;5.72;;;12.10;99.90;;;;;;5014929;28;20463;-76
2023/05/13 00:29:24;;;;;;;7.70;5.70;;;12.10;99.90;;;;;;5014165;28;20053;-77
2023/05/13 00:31:50;;;;;;;8.18;6.00;;;12.10;99.90;;;;;;5014759;28;20042;-77
2023/05/13 00:34:17;;;;;;;8.43;6.03;;;12.10;99.90;;;;;;5014569;28;20085;-77
2023/05/13 00:36:43;;;;;;;6.57;5.88;;;12.00;99.90;;;;;;5014803;28;20054;-77
2023/05/13 00:39:10;;;;;;;6.68;5.85;;;12.00;99.90;;;;;;5014534;28;20092;-77
2023/05/13 00:41:36;;;;;;;8.88;6.68;;;12.00;99.90;;;;;;5015125;28;20053;-77
2023/05/13 00:44:02;;;;;;;6.82;6.13;;;11.90;99.90;;;;;;5014641;28;20120;-77
2023/05/13 00:46:34;;;;;;;9.82;6.18;;;12.00;99.90;;;;;;5013644;28;20538;-78
2023/05/13 00:49:01;;;;;;;7.28;6.18;;;11.90;99.90;;;;;;5015660;28;20133;-77
2023/05/13 00:51:27;;;;;;;7.22;6.15;;;11.90;99.90;;;;;;5016400;28;20105;-77
2023/05/13 00:53:53;;;;;;;8.10;6.15;;;11.90;99.90;;;;;;5015818;28;20434;-77
2023/05/13 00:56:20;;;;;;;7.88;6.22;;;11.90;99.90;;;;;;5015206;28;20364;-77
2023/05/13 00:58:46;;;;;;;6.78;6.07;;;11.80;99.90;;;;;;5014382;28;20049;-77
2023/05/13 01:01:30;;;;;;;7.93;6.40;;;11.80;99.90;;;;;;5013804;28;20050;-78
2023/05/13 01:04:33;;;;;;;7.10;6.03;;;11.80;99.90;;;;;;5013300;28;20049;-77
2023/05/13 01:07:24;;;;;;;8.77;6.38;;;11.80;99.90;;;;;;5015101;28;20355;-77
2023/05/13 01:10:13;;;;;;;7.68;5.75;;;11.70;99.90;;;;;;5014124;28;20103;-77
2023/05/13 01:12:45;;;;;;;7.40;5.90;;;11.70;99.90;;;;;;5014916;28;20452;-77
2023/05/13 01:15:22;;;;;;;10.25;6.35;;;11.60;99.90;;;;;;5013194;28;20049;-77
2023/05/13 01:18:04;;;;;;;7.18;6.03;;;11.70;99.90;;;;;;5014258;28;20056;-77
2023/05/13 01:20:30;;;;;;;6.93;5.78;;;11.70;99.90;;;;;;5014157;28;20058;-77
2023/05/13 01:22:56;;;;;;;9.00;6.13;;;11.60;99.90;;;;;;5014631;28;20048;-77
2023/05/13 01:25:24;;;;;;;6.50;5.82;;;11.60;99.90;;;;;;5013559;28;20379;-77
2023/05/13 01:27:50;;;;;;;7.78;6.30;;;11.60;99.90;;;;;;5012771;28;20046;-77
2023/05/13 01:30:16;;;;;;;8.07;6.20;;;11.50;99.90;;;;;;5013254;28;20052;-77
2023/05/13 01:32:43;;;;;;;7.68;5.78;;;11.60;99.90;;;;;;5013534;28;20050;-77
2023/05/13 01:35:10;;;;;;;7.20;6.50;;;11.60;99.90;;;;;;5012947;28;20050;-77
2023/05/13 01:37:37;;;;;;;7.30;5.65;;;11.50;99.90;;;;;;5013590;28;20483;-77
2023/05/13 01:40:06;;;;;;;7.28;5.90;;;11.50;99.90;;;;;;5012722;28;20124;-77
2023/05/13 01:42:33;;;;;;;7.70;6.00;;;11.50;99.90;;;;;;5014284;28;20037;-77
2023/05/13 01:44:59;;;;;;;6.70;5.70;;;11.50;99.90;;;;;;5013654;28;20450;-77
2023/05/13 01:47:25;;;;;;;7.50;5.65;;;11.50;99.90;;;;;;5012747;28;20089;-77
2023/05/13 01:49:51;;;;;;;7.35;6.10;;;11.50;99.90;;;;;;5013432;28;20525;-77
2023/05/13 01:52:17;;;;;;;8.43;6.05;;;11.40;99.90;;;;;;5013416;28;20046;-77
2023/05/13 01:54:43;;;;;;;6.65;5.40;;;11.40;99.90;;;;;;5013965;28;20046;-77
2023/05/13 01:57:09;;;;;;;7.50;5.75;;;11.40;99.90;;;;;;4996393;28;20041;-77
2023/05/13 01:59:34;;;;;;;9.95;6.45;;;11.40;99.90;;;;;;5013927;28;20129;-77
2023/05/13 02:02:00;;;;;;;6.68;5.60;;;11.30;99.90;;;;;;5012700;28;20081;-76
2023/05/13 02:04:26;;;;;;;7.05;5.65;;;11.30;99.90;;;;;;5013662;28;20128;-77
2023/05/13 02:06:52;;;;;;;6.95;6.03;;;11.30;99.90;;;;;;5013426;28;20116;-77
2023/05/13 02:09:18;;;;;;;6.63;5.68;;;11.30;99.90;;;;;;4996052;28;20133;-77
2023/05/13 02:11:45;;;;;;;7.97;5.72;;;11.30;99.90;;;;;;4998229;28;20045;-77
2023/05/13 02:14:10;;;;;;;6.40;5.60;;;11.30;99.90;;;;;;5017582;28;20128;-77
2023/05/13 02:16:36;;;;;;;7.80;5.95;;;11.30;99.90;;;;;;5015952;28;20143;-78
2023/05/13 02:19:02;;;;;;;6.55;5.72;;;11.30;99.90;;;;;;5017135;28;20052;-77
2023/05/13 02:21:28;;;;;;;6.65;5.47;;;11.20;99.90;;;;;;5017353;28;20057;-77
2023/05/13 02:23:54;;;;;;;6.85;5.90;;;11.20;99.90;;;;;;5017133;28;20370;-77
2023/05/13 02:26:21;;;;;;;7.43;5.68;;;11.10;99.90;;;;;;5017249;28;20081;-77
2023/05/13 02:28:47;;;;;;;6.88;5.75;;;11.10;99.90;;;;;;5017201;28;20151;-77
2023/05/13 02:31:13;;;;;;;6.53;5.82;;;11.20;99.90;;;;;;5016082;28;20049;-77
2023/05/13 02:33:38;;;;;;;10.57;6.18;;;11.10;99.90;;;;;;5017042;28;20045;-77
2023/05/13 02:36:04;;;;;;;6.63;5.93;;;11.10;99.90;;;;;;5017132;28;20050;-77
2023/05/13 02:38:30;;;;;;;7.13;5.68;;;11.00;99.90;;;;;;5016042;28;20046;-77
2023/05/13 02:40:55;;;;;;;7.18;5.80;;;10.90;99.90;;;;;;5016988;28;20080;-77
2023/05/13 02:43:22;;;;;;;6.32;5.72;;;10.80;99.90;;;;;;5016277;28;20046;-76
2023/05/13 02:45:48;;;;;;;7.68;5.95;;;10.80;99.90;;;;;;5015892;28;20061;-77
2023/05/13 02:48:13;;;;;;;8.88;6.07;;;10.80;99.90;;;;;;5017046;28;20054;-77
2023/05/13 02:50:39;;;;;;;10.18;6.15;;;10.90;99.90;;;;;;5016750;28;20046;-77
2023/05/13 02:53:05;;;;;;;8.40;6.10;;;10.80;99.90;;;;;;5016657;28;20088;-77
2023/05/13 02:55:31;;;;;;;6.75;5.70;;;10.90;99.90;;;;;;5015987;28;20406;-77
2023/05/13 02:57:57;;;;;;;7.97;6.18;;;10.80;99.90;;;;;;5017524;28;20038;-77
2023/05/13 03:00:22;;;;;;;7.38;5.85;;;10.70;99.90;;;;;;4999400;28;20585;-77
2023/05/13 03:02:48;;;;;;;6.55;5.75;;;10.60;99.90;;;;;;5016623;28;20054;-77
2023/05/13 03:05:14;;;;;;;8.80;5.97;;;10.60;99.90;;;;;;5017373;28;20077;-77
2023/05/13 03:07:40;;;;;;;7.85;6.30;;;10.60;99.90;;;;;;5015790;28;20064;-77
2023/05/13 03:10:06;;;;;;;9.95;6.68;;;10.50;99.90;;;;;;5015013;28;20050;-77
2023/05/13 03:12:32;;;;;;;8.32;6.70;;;10.60;99.90;;;;;;5016000;28;20433;-77
2023/05/13 03:14:58;;;;;;;6.80;6.10;;;10.60;99.90;;;;;;5016333;28;20041;-77
2023/05/13 03:17:24;;;;;;;7.72;6.93;;;10.50;99.90;;;;;;5016761;28;20052;-77
2023/05/13 03:19:50;;;;;;;9.40;6.80;;;10.50;99.90;;;;;;5014789;28;20137;-77
2023/05/13 03:22:16;;;;;;;7.50;6.60;;;10.50;99.90;;;;;;5015541;28;20053;-77
2023/05/13 03:24:43;;;;;;;7.43;6.20;;;10.60;99.90;;;;;;5014932;28;20042;-78
2023/05/13 03:27:09;;;;;;;8.02;7.00;;;10.50;99.90;;;;;;5015747;28;20058;-77
2023/05/13 03:29:34;;;;;;;7.88;6.50;;;10.50;99.90;;;;;;5014785;28;20201;-76
2023/05/13 03:32:00;;;;;;;8.68;6.75;;;10.50;99.90;;;;;;5014826;28;20092;-77
2023/05/13 03:34:26;;;;;;;9.48;6.78;;;10.50;99.90;;;;;;5014632;28;20042;-77
2023/05/13 03:36:52;;;;;;;8.88;7.30;;;10.50;99.90;;;;;;5015563;28;20473;-76
2023/05/13 03:39:17;;;;;;;8.90;7.10;;;10.50;99.90;;;;;;5015081;28;20459;-77
2023/05/13 03:41:44;;;;;;;9.30;6.90;;;10.50;99.90;;;;;;5014443;28;20046;-76
2023/05/13 03:44:10;;;;;;;8.10;6.70;;;10.50;99.90;;;;;;5015722;28;20379;-76
2023/05/13 03:46:36;;;;;;;8.85;6.78;;;10.50;99.90;;;;;;5015378;28;20057;-76
2023/05/13 03:49:02;;;;;;;7.50;6.70;;;10.50;99.90;;;;;;5014775;28;20052;-77
2023/05/13 03:51:27;;;;;;;8.50;7.10;;;10.50;99.90;;;;;;5016290;28;20077;-76
2023/05/13 03:53:53;;;;;;;8.75;6.82;;;10.50;99.90;;;;;;5015447;28;20084;-76
2023/05/13 03:56:20;;;;;;;8.55;7.47;;;10.50;99.90;;;;;;5015575;28;20419;-77
2023/05/13 03:58:46;;;;;;;8.50;7.30;;;10.50;99.90;;;;;;5016103;28;20054;-76
2023/05/13 04:01:11;;;;;;;10.93;7.30;;;10.50;99.90;;;;;;5015138;28;20050;-77
2023/05/13 04:03:37;;;;;;;9.57;7.00;;;10.40;99.90;;;;;;5015727;28;20128;-77
2023/05/13 04:06:03;;;;;;;9.13;7.30;;;10.40;99.90;;;;;;5014301;28;20042;-76
2023/05/13 04:08:28;;;;;;;9.48;7.25;;;10.30;99.90;;;;;;5014207;28;20497;-77
2023/05/13 04:10:55;;;;;;;8.25;7.03;;;10.30;99.90;;;;;;4998831;28;20438;-77
2023/05/13 04:13:21;;;;;;;8.90;7.60;;;10.30;99.90;;;;;;5015926;28;20147;-77
2023/05/13 04:15:47;;;;;;;9.20;7.30;;;10.30;99.90;;;;;;5015993;28;20045;-76
2023/05/13 04:18:13;;;;;;;8.55;7.38;;;10.30;99.90;;;;;;5015157;28;20096;-77
2023/05/13 04:20:39;;;;;;;8.77;7.50;;;10.30;99.90;;;;;;5014024;28;20072;-77
2023/05/13 04:23:05;;;;;;;8.73;7.13;;;10.30;99.90;;;;;;5015335;28;20050;-77
2023/05/13 04:25:31;;;;;;;10.65;7.35;;;10.30;99.90;;;;;;5015024;28;20070;-77
2023/05/13 04:27:57;;;;;;;9.40;7.60;;;10.40;99.90;;;;;;5013781;28;20100;-77
2023/05/13 04:30:23;;;;;;;9.07;7.45;;;10.30;99.90;;;;;;5014886;28;20056;-76
2023/05/13 04:32:48;;;;;;;10.18;8.15;;;10.40;99.90;;;;;;5014529;28;20104;-77
2023/05/13 04:35:14;;;;;;;8.90;7.95;;;10.30;99.90;;;;;;5012579;28;20482;-77
2023/05/13 04:37:40;;;;;;;12.65;8.05;;;10.30;99.90;;;;;;5013640;28;20382;-77
2023/05/13 04:40:07;;;;;;;8.75;7.85;;;10.30;99.90;;;;;;5015297;28;20049;-77
2023/05/13 04:42:33;;;;;;;10.70;7.75;;;10.30;99.90;;;;;;5014039;28;20479;-77
2023/05/13 04:44:58;;;;;;;10.65;8.05;;;10.40;99.90;;;;;;5015147;28;20053;-77
2023/05/13 04:47:24;;;;;;;9.95;8.70;;;10.40;99.90;;;;;;4997521;28;20046;-77
2023/05/13 04:49:50;;;;;;;10.57;9.07;;;10.50;99.90;;;;;;5015402;28;20057;-77
2023/05/13 04:52:15;;;;;;;10.27;8.90;;;10.60;99.90;;;;;;5015074;28;20050;-76
2023/05/13 04:54:41;;;;;;;12.10;9.38;;;10.60;99.90;;;;;;5014497;28;20486;-77
2023/05/13 04:57:07;;;;;;;12.70;9.75;;;10.60;99.90;;;;;;5014308;28;20050;-77
2023/05/13 04:59:33;;;;;;;13.82;9.85;;;10.60;99.90;;;;;;5014418;28;20053;-77
2023/05/13 05:01:59;;;;;;;13.68;9.80;;;10.60;99.90;;;;;;5013284;28;20054;-77
2023/05/13 05:04:25;;;;;;;14.10;10.65;;;10.60;99.90;;;;;;5013226;28;20058;-77
2023/05/13 05:06:51;;;;;;;16.63;11.10;;;10.70;99.90;;;;;;4997234;28;20057;-77
2023/05/13 05:09:17;;;;;;;14.15;11.48;;;10.70;99.90;;;;;;5014312;28;20046;-77
2023/05/13 05:11:43;;;;;;;15.43;11.55;;;10.80;99.90;;;;;;5013135;28;20052;-77
2023/05/13 05:14:09;;;;;;;14.45;12.05;;;10.80;99.90;;;;;;5014184;28;20052;-77
2023/05/13 05:16:35;;;;;;;15.18;11.98;;;11.00;99.90;;;;;;5014741;28;20099;-77
2023/05/13 05:19:00;;;;;;;14.32;11.68;;;11.10;99.90;;;;;;5012904;28;20501;-77
2023/05/13 05:21:26;;;;;;;15.77;11.10;;;11.20;99.90;;;;;;5014507;28;20125;-77
2023/05/13 05:23:52;;;;;;;15.15;11.93;;;11.30;99.90;;;;;;5014606;28;20071;-77
2023/05/13 05:26:17;;;;;;;14.95;11.55;;;11.40;99.90;;;;;;5012814;28;20056;-77
2023/05/13 05:28:44;;;;;;;13.48;11.70;;;11.40;99.90;;;;;;4996734;28;20046;-77
2023/05/13 05:31:10;;;;;;;13.55;11.40;;;11.40;99.90;;;;;;5013914;28;20042;-77
2023/05/13 05:33:36;;;;;;;15.85;10.90;;;11.60;99.90;;;;;;5015140;28;20042;-76
2023/05/13 05:36:02;;;;;;;14.75;10.93;;;11.80;99.90;;;;;;5015191;28;20057;-76
2023/05/13 05:38:28;;;;;;;14.13;10.70;;;11.90;99.90;;;;;;5016104;28;20398;-76
2023/05/13 05:40:54;;;;;;;12.05;10.15;;;12.10;99.90;;;;;;5013739;28;20041;-76
2023/05/13 05:43:20;;;;;;;14.68;10.65;;;12.20;99.90;;;;;;5013867;28;20125;-76
2023/05/13 05:45:46;;;;;;;12.80;10.80;;;12.30;99.90;;;;;;5013543;28;20495;-77
2023/05/13 05:48:11;;;;;;;13.57;9.77;;;12.50;99.90;;;;;;5014014;28;20399;-77
2023/05/13 05:50:37;;;;;;;13.18;10.23;;;12.60;99.90;;;;;;5012838;28;20058;-78
2023/05/13 05:53:03;;;;;;;11.48;9.88;;;12.60;99.90;;;;;;5013686;28;20038;-77
2023/05/13 05:55:30;;;;;;;11.80;9.70;;;12.70;99.90;;;;;;5013585;28;20423;-77
2023/05/13 05:57:57;;;;;;;11.23;9.73;;;12.80;99.90;;;;;;5012976;28;20129;-77
2023/05/13 06:00:23;;;;;;;11.73;9.13;;;12.80;99.90;;;;;;5012752;28;20507;-77
2023/05/13 06:02:49;;;;;;;12.35;9.52;;;12.80;99.90;;;;;;5013672;28;20050;-78
2023/05/13 06:05:15;;;;;;;9.82;8.68;;;12.80;99.90;;;;;;5014161;28;20124;-77
2023/05/13 06:07:40;;;;;;;12.13;9.48;;;12.80;99.90;;;;;;5013654;28;20133;-78
2023/05/13 06:10:06;;;;;;;11.90;9.55;;;12.90;99.90;;;;;;5013583;28;20602;-77
2023/05/13 06:12:32;;;;;;;11.23;9.85;;;12.90;99.90;;;;;;5013211;28;20100;-78
2023/05/13 06:14:58;;;;;;;14.35;9.95;;;12.90;99.90;;;;;;4996253;28;20046;-78
2023/05/13 06:17:24;;;;;;;9.93;8.85;;;13.00;99.90;;;;;;5013080;28;20046;-77
2023/05/13 06:19:50;;;;;;;12.88;9.40;;;13.10;99.90;;;;;;5012181;28;20049;-78
2023/05/13 06:22:16;;;;;;;11.13;9.00;;;13.30;99.90;;;;;;5013477;28;20049;-77
2023/05/13 06:24:43;;;;;;;14.38;9.50;;;13.40;99.90;;;;;;5012454;28;20046;-77
2023/05/13 06:27:12;;;;;;;11.18;9.00;;;13.50;99.90;;;;;;5012452;28;20471;-76
2023/05/13 06:29:38;;;;;;;10.93;9.02;;;13.50;99.90;;;;;;5013453;28;20092;-77
2023/05/13 06:32:04;;;;;;;12.35;9.40;;;13.60;99.90;;;;;;5012205;28;20077;-78
2023/05/13 06:34:30;;;;;;;11.48;9.45;;;13.70;99.90;;;;;;5013417;28;20046;-77
2023/05/13 06:36:55;;;;;;;12.18;9.15;;;13.70;99.90;;;;;;5013313;28;20057;-77
2023/05/13 06:39:21;;;;;;;10.70;9.38;;;13.90;99.90;;;;;;5012402;28;20088;-77
2023/05/13 06:41:47;;;;;;;10.45;9.32;;;13.90;99.90;;;;;;5013301;28;20052;-77
2023/05/13 06:44:12;;;;;;;11.80;9.70;;;14.00;99.90;;;;;;5012738;28;20430;-77
2023/05/13 06:46:38;;;;;;;10.75;9.27;;;14.00;99.90;;;;;;5013306;28;20046;-68
2023/05/13 06:49:04;;;;;;;11.80;9.60;;;14.10;99.90;;;;;;5013211;28;20386;-67
2023/05/13 06:51:31;;;;;;;13.82;9.52;;;14.20;99.90;;;;;;5013053;28;20046;-67
2023/05/13 06:53:57;;;;;;;10.07;8.93;;;14.30;99.90;;;;;;5012892;28;20530;-68
2023/05/13 06:56:24;;;;;;;11.18;9.68;;;14.40;99.90;;;;;;5013152;28;20085;-68
2023/05/13 06:58:53;;;;;;;12.32;9.68;;;14.50;99.90;;;;;;5015173;28;20449;-68
2023/05/13 07:01:19;;;;;;;10.10;8.82;;;14.60;99.90;;;;;;5016621;28;20046;-68
2023/05/13 07:03:45;;;;;;;12.90;9.50;;;14.70;99.90;;;;;;5015375;28;20046;-68
2023/05/13 07:06:11;;;;;;;11.02;8.73;;;14.80;99.90;;;;;;5016575;28;20050;-68
2023/05/13 07:08:37;;;;;;;9.25;8.20;;;14.80;99.90;;;;;;5016520;28;20049;-67
2023/05/13 07:11:03;;;;;;;10.57;9.00;;;14.80;99.90;;;;;;5016450;28;20077;-68
2023/05/13 07:13:32;;;;;;;10.90;8.68;;;14.90;99.90;;;;;;5016298;28;20470;-67
2023/05/13 07:15:58;;;;;;;10.43;8.00;;;15.00;99.90;;;;;;5016378;28;20054;-68
2023/05/13 07:18:23;;;;;;;11.52;9.00;;;15.10;99.90;;;;;;5016233;28;20046;-67
2023/05/13 07:20:49;;;;;;;9.55;8.10;;;15.20;99.90;;;;;;5016489;28;20061;-67
2023/05/13 07:23:15;;;;;;;10.52;8.00;;;15.30;99.90;;;;;;5014775;28;20441;-68
2023/05/13 07:25:41;;;;;;;9.68;8.23;;;15.30;99.90;;;;;;5015859;28;20136;-67
2023/05/13 07:28:07;;;;;;;11.73;9.27;;;15.40;99.90;;;;;;5016056;28;20132;-68
2023/05/13 07:30:32;;;;;;;10.45;8.63;;;15.50;99.90;;;;;;5015993;28;20512;-68
2023/05/13 07:32:58;;;;;;;10.13;8.00;;;15.60;99.90;;;;;;5016496;28;20048;-68
2023/05/13 07:35:24;;;;;;;9.93;7.70;;;15.70;99.90;;;;;;5014746;28;20049;-68
2023/05/13 07:37:50;;;;;;;10.35;8.77;;;15.80;99.90;;;;;;5015852;28;20056;-68
2023/05/13 07:40:16;;;;;;;8.93;7.65;;;15.90;99.90;;;;;;5015866;28;20056;-68
2023/05/13 07:42:42;;;;;;;10.10;7.95;;;16.00;99.90;;;;;;5016807;28;20042;-68
2023/05/13 07:45:08;;;;;;;8.93;7.10;;;16.10;99.90;;;;;;5015723;28;20057;-66
2023/05/13 07:47:34;;;;;;;10.02;7.72;;;16.20;99.90;;;;;;5015614;28;20049;-66
2023/05/13 07:50:00;;;;;;;12.23;7.85;;;16.30;99.90;;;;;;5015666;28;20402;-66
2023/05/13 07:52:26;;;;;;;9.93;7.90;;;16.20;99.90;;;;;;5015524;28;20093;-65
2023/05/13 07:54:51;;;;;;;10.00;8.00;;;16.30;99.90;;;;;;5015617;28;20500;-66
2023/05/13 07:57:17;;;;;;;8.93;7.85;;;16.40;99.90;;;;;;5015532;28;20049;-66
2023/05/13 07:59:43;;;;;;;9.57;8.02;;;16.60;99.90;;;;;;5015749;28;20052;-66
2023/05/13 08:02:10;;;;;;;10.77;7.53;;;16.70;99.90;;;;;;5015987;28;20132;-65
2023/05/13 08:04:36;;;;;;;8.60;7.80;;;16.80;99.90;;;;;;5015281;28;20137;-66
2023/05/13 08:07:02;;;;;;;11.43;8.07;;;16.90;99.90;;;;;;5015335;28;20128;-66
2023/05/13 08:09:28;;;;;;;10.05;8.52;;;16.90;99.90;;;;;;5014652;28;20046;-65
2023/05/13 08:11:53;;;;;;;9.20;8.20;;;17.00;99.90;;;;;;5015471;28;20046;-68
2023/05/13 08:14:20;;;;;;;9.27;8.15;;;17.20;99.90;;;;;;5014241;28;20042;-68
2023/05/13 08:16:45;;;;;;;8.85;7.43;;;17.30;99.90;;;;;;5015842;28;20436;-68
2023/05/13 08:19:13;;;;;;;9.45;7.80;;;17.40;99.90;;;;;;5015373;28;20050;-68
2023/05/13 08:21:38;;;;;;;8.93;7.65;;;17.50;99.90;;;;;;5014353;28;20053;-70
2023/05/13 08:24:05;;;;;;;9.15;7.38;;;17.50;99.90;;;;;;5014976;28;20038;-70
2023/05/13 08:26:31;;;;;;;10.32;7.53;;;17.70;99.90;;;;;;5014914;28;20050;-70
2023/05/13 08:28:57;;;;;;;10.05;7.28;;;17.80;99.90;;;;;;5014510;28;20041;-70
2023/05/13 08:31:24;;;;;;;9.38;8.10;;;17.80;99.90;;;;;;5015295;28;20352;-70
2023/05/13 08:33:50;;;;;;;8.52;7.40;;;17.90;99.90;;;;;;5013910;28;20049;-66
2023/05/13 08:36:16;;;;;;;9.60;7.25;;;18.10;99.90;;;;;;5015041;28;20107;-67
2023/05/13 08:38:42;;;;;;;8.60;7.65;;;18.20;99.90;;;;;;5014698;28;20046;-67
2023/05/13 08:41:13;;;;;;;10.68;7.80;;;18.30;99.90;;;;;;5014352;28;20177;-67
2023/05/13 08:43:39;;;;;;;11.02;7.90;;;18.30;99.90;;;;;;5014843;28;20042;-69
2023/05/13 08:46:08;;;;;;;8.00;7.20;;;18.40;99.90;;;;;;5014627;28;20050;-68
2023/05/13 08:48:35;;;;;;;8.63;7.15;;;18.50;99.90;;;;;;5014892;28;20051;-68
2023/05/13 08:51:01;;;;;;;9.52;7.25;;;18.50;99.90;;;;;;5013198;28;20046;-68
2023/05/13 08:53:27;;;;;;;8.32;7.50;;;18.60;99.90;;;;;;5014674;28;20048;-68
2023/05/13 08:55:53;;;;;;;8.50;7.35;;;18.70;99.90;;;;;;5014427;28;20077;-68
2023/05/13 08:58:19;;;;;;;9.02;7.47;;;18.80;99.90;;;;;;5014326;28;20048;-68
2023/05/13 09:00:47;;;;;;;9.02;6.60;;;18.90;99.90;;;;;;5014380;28;20494;-67
2023/05/13 09:03:13;;;;;;;8.07;7.15;;;19.00;99.90;;;;;;5014319;28;20069;-67
2023/05/13 09:05:40;;;;;;;8.18;6.85;;;19.10;99.90;;;;;;5014223;28;20049;-67
2023/05/13 09:08:11;;;;;;;7.20;6.15;;;19.20;99.90;;;;;;5014479;28;20441;-67
2023/05/13 09:10:37;;;;;;;8.95;6.88;;;19.30;99.90;;;;;;5014229;28;20058;-68
2023/05/13 09:13:03;;;;;;;10.40;6.50;;;19.30;99.90;;;;;;5014093;28;20053;-67
2023/05/13 09:15:30;;;;;;;9.70;6.15;;;19.30;99.90;;;;;;5014879;28;20053;-67
2023/05/13 09:18:02;;;;;;;7.82;6.90;;;19.40;99.90;;;;;;5014453;28;20042;-66
2023/05/13 09:20:28;;;;;;;9.13;6.80;;;19.60;99.90;;;;;;5011739;28;20054;-70
2023/05/13 09:23:03;;;;;;;6.97;5.47;;;19.70;99.90;;;;;;5013207;28;20069;-68
2023/05/13 09:25:30;;;;;;;7.55;5.80;;;19.90;99.90;;;;;;5014807;28;20049;-68
2023/05/13 09:27:57;;;;;;;8.98;6.05;;;20.10;99.90;;;;;;5013705;28;20053;-68
2023/05/13 09:30:39;;;;;;;6.57;5.65;;;20.20;99.90;;;;;;5012902;28;20394;-69
2023/05/13 09:33:13;;;;;;;7.40;5.97;;;20.30;99.90;;;;;;5013716;28;20042;-68
2023/05/13 09:35:42;;;;;;;8.15;6.30;;;20.50;99.90;;;;;;5013910;28;20483;-68
2023/05/13 09:38:15;;;;;;;7.00;6.30;;;20.70;99.90;;;;;;5013715;28;20368;-69
2023/05/13 09:40:48;;;;;;;6.60;5.35;;;20.80;99.90;;;;;;5013747;28;20048;-68
2023/05/13 09:43:14;;;;;;;6.22;5.63;;;20.90;99.90;;;;;;5013473;28;20481;-68
2023/05/13 09:45:40;;;;;;;8.43;5.20;;;20.90;99.90;;;;;;5013729;28;20054;-68
2023/05/13 09:48:07;;;;;;;5.50;5.00;;;20.90;99.90;;;;;;5013716;28;20053;-68
2023/05/13 09:50:33;;;;;;;7.50;5.28;;;21.00;99.90;;;;;;5013636;28;20129;-67
2023/05/13 09:53:09;;;;;;;10.77;5.53;;;21.10;99.90;;;;;;5013803;28;20181;-68
2023/05/13 09:55:35;;;;;;;6.50;4.43;;;21.30;99.90;;;;;;5013827;28;20041;-68
2023/05/13 09:58:02;;;;;;;7.47;5.82;;;21.50;99.90;;;;;;5013643;28;20509;-67
2023/05/13 10:00:28;;;;;;;6.80;5.60;;;21.70;99.90;;;;;;5014000;28;20054;-68
2023/05/13 10:02:54;;;;;;;6.28;5.30;;;21.80;99.90;;;;;;5013494;28;20128;-67
2023/05/13 10:05:22;;;;;;;6.35;5.32;;;21.90;99.90;;;;;;5013602;28;20093;-68
2023/05/13 10:07:48;;;;;;;6.05;5.15;;;21.90;99.90;;;;;;5013521;28;20097;-68
2023/05/13 10:10:13;;;;;;;5.85;5.25;;;22.00;99.90;;;;;;5013569;28;20045;-68
2023/05/13 10:12:40;;;;;;;7.13;4.60;;;22.10;99.90;;;;;;5013367;28;20046;-68
2023/05/13 10:15:09;;;;;;;4.85;4.00;;;22.20;99.90;;;;;;5013455;28;20088;-68
2023/05/13 10:17:35;;;;;;;5.82;4.65;;;22.40;99.90;;;;;;5013957;28;20046;-67
2023/05/13 10:20:02;;;;;;;5.72;3.80;;;22.50;99.90;;;;;;5012780;28;20479;-68
2023/05/13 10:22:30;;;;;;;4.38;3.47;;;22.50;99.90;;;;;;5013461;28;20138;-68
2023/05/13 10:24:57;;;;;;;6.88;3.10;;;22.60;99.90;;;;;;5014120;28;20046;-69
2023/05/13 10:27:31;;;;;;;4.38;3.13;;;22.80;99.90;;;;;;5013898;28;20054;-68
2023/05/13 10:29:58;;;;;;;6.70;3.47;;;22.90;99.90;;;;;;5013671;28;20081;-67
2023/05/13 10:32:29;;;;;;;4.18;3.38;;;23.00;99.90;;;;;;5014860;28;20045;-68
2023/05/13 10:35:09;;;;;;;5.15;3.65;;;23.10;99.90;;;;;;5017709;28;20081;-67
2023/05/13 10:38:08;;;;;;;4.57;3.05;;;23.10;99.90;;;;;;5016380;28;20133;-68
2023/05/13 10:40:52;;;;;;;4.63;3.42;;;23.20;99.90;;;;;;5017016;28;20050;-68
2023/05/13 10:43:24;;;;;;;4.55;3.60;;;23.40;99.90;;;;;;5016916;28;20065;-67
2023/05/13 10:46:05;;;;;;;4.07;3.20;;;23.50;99.90;;;;;;5016900;28;20049;-68
2023/05/13 10:48:55;;;;;;;4.00;3.22;;;23.70;99.90;;;;;;5015618;28;20050;-68
2023/05/13 10:51:23;;;;;;;4.05;3.15;;;23.90;99.90;;;;;;5015531;28;20141;-68
2023/05/13 10:53:51;;;;;;;5.47;3.25;;;24.00;99.90;;;;;;5016695;28;20046;-70
2023/05/13 10:56:26;;;;;;;4.22;2.92;;;24.10;99.90;;;;;;5016730;28;20052;-68
2023/05/13 10:59:01;;;;;;;3.42;2.90;;;24.30;99.90;;;;;;5016596;28;20479;-68
2023/05/13 11:01:33;;;;;;;5.38;2.88;;;24.40;99.90;;;;;;5016558;28;20050;-68
2023/05/13 11:04:01;;;;;;;4.07;3.20;;;24.50;99.90;;;;;;5016518;28;20050;-68
2023/05/13 11:06:38;;;;;;;5.50;2.83;;;24.50;99.90;;;;;;5017306;28;20042;-69
2023/05/13 11:09:11;;;;;;;6.07;3.13;;;24.60;99.90;;;;;;5016458;28;20042;-68
2023/05/13 11:11:37;;;;;;;6.65;2.78;;;24.70;99.90;;;;;;5017143;28;20132;-68
2023/05/13 11:14:21;;;;;;;3.72;2.42;;;24.70;99.90;;;;;;5017044;28;20121;-69
2023/05/13 11:17:08;;;;;;;3.50;2.70;;;24.70;99.90;;;;;;5016349;28;20045;-69
2023/05/13 11:19:34;;;;;;;4.25;3.00;;;24.90;99.90;;;;;;5016481;28;20108;-69
2023/05/13 11:22:12;;;;;;;3.63;2.40;;;24.90;99.90;;;;;;5016175;28;20046;-68
2023/05/13 11:24:39;;;;;;;6.40;2.60;;;25.10;99.90;;;;;;5016237;28;20056;-68
2023/05/13 11:27:18;;;;;;;4.53;2.78;;;25.20;99.90;;;;;;5016157;28;20050;-68
2023/05/13 11:29:54;;;;;;;4.45;2.67;;;25.30;99.90;;;;;;5016001;28;20045;-68
2023/05/13 11:32:52;;;;;;;3.45;2.83;;;25.40;99.90;;;;;;5016485;28;20088;-68
2023/05/13 11:35:30;;;;;;;5.03;2.70;;;25.60;99.90;;;;;;5015914;28;20497;-69
2023/05/13 11:37:56;;;;;;;5.03;2.05;;;25.70;99.90;;;;;;5015841;28;20061;-69
2023/05/13 11:40:24;;;;;;;3.60;2.53;;;25.60;99.90;;;;;;5015743;28;20054;-68
2023/05/13 11:42:49;;;;;;;3.97;2.20;;;25.60;99.90;;;;;;5016532;28;20412;-68
2023/05/13 11:45:21;;;;;;;4.43;2.40;;;25.60;99.90;;;;;;5015546;28;20085;-68
2023/05/13 11:47:47;;;;;;;3.38;2.50;;;25.30;99.90;;;;;;5014700;28;20049;-69
2023/05/13 11:50:24;;;;;;;5.22;2.20;;;24.90;99.90;;;;;;5015290;28;20053;-68
2023/05/13 11:52:56;;;;;;;3.30;2.10;;;24.90;99.90;;;;;;5014435;28;20045;-69
2023/05/13 11:55:35;;;;;;;4.03;2.10;;;25.20;99.90;;;;;;5014559;28;20140;-70
2023/05/13 11:58:02;;;;;;;3.33;2.33;;;25.60;99.90;;;;;;5014559;28;20046;-69
2023/05/13 12:00:30;;;;;;;4.55;2.10;;;25.80;99.90;;;;;;5015540;28;20129;-69
2023/05/13 12:02:56;;;;;;;3.83;2.03;;;25.90;99.90;;;;;;5015357;28;20049;-69
2023/05/13 12:05:23;;;;;;;6.22;2.50;;;25.70;99.90;;;;;;5015381;28;20050;-69
2023/05/13 12:07:48;;;;;;;3.00;2.05;;;25.40;99.90;;;;;;5015364;28;20081;-68
2023/05/13 12:10:14;;;;;;;4.93;2.30;;;25.20;99.90;;;;;;5015259;28;20120;-69
2023/05/13 12:12:44;;;;;;;2.67;2.15;;;25.30;99.90;;;;;;5015100;28;20096;-69
2023/05/13 12:15:12;;;;;;;4.57;2.33;;;25.60;99.90;;;;;;5015112;28;20092;-69
2023/05/13 12:17:39;;;;;;;4.97;2.35;;;25.90;99.90;;;;;;5015118;28;20085;-68
2023/05/13 12:20:09;;;;;;;5.43;2.20;;;26.20;99.90;;;;;;5015059;28;20490;-69
2023/05/13 12:22:36;;;;;;;4.07;2.22;;;26.50;99.90;;;;;;5015054;28;20379;-69
2023/05/13 12:25:34;;;;;;;4.53;2.08;;;26.80;99.90;;;;;;5015046;28;20075;-68
2023/05/13 12:28:12;;;;;;;3.83;2.50;;;27.00;99.90;;;;;;5015282;28;20208;-69
2023/05/13 12:30:39;;;;;;;6.10;3.00;;;27.10;99.90;;;;;;5014941;28;20046;-67
2023/05/13 12:33:12;;;;;;;4.85;2.05;;;27.30;99.90;;;;;;5014883;28;20085;-67
2023/05/13 12:35:37;;;;;;;3.05;2.10;;;27.50;99.90;;;;;;5014956;28;20096;-67
2023/05/13 12:38:04;;;;;;;3.25;1.98;;;27.30;99.90;;;;;;5014498;28;20081;-67
2023/05/13 12:40:30;;;;;;;4.53;1.92;;;26.70;99.90;;;;;;5015217;28;20049;-66
2023/05/13 12:43:00;;;;;;;2.90;2.17;;;26.00;99.90;;;;;;5014326;28;20486;-69
2023/05/13 12:45:31;;;;;;;3.42;2.00;;;25.50;99.90;;;;;;5014301;28;20061;-69